Latest Weather Observations for Ballina

IDN60801

Issued at 5:12 am EDT Friday 18 October 2019 (issued every 10 minutes, with the page automatically refreshed every 10 minutes)

About weather observations | Map of weather stations | Latest weather observations for NSW | Other Formats
Station Details ID: 058198 Name: BALLINA AIRPORT AWS Lat: -28.84 Lon: 153.56 Height: 1.3 m
Data from the previous 72 hours. | See also: Recent months at Ballina
Date/Time
EDT
Temp
°C
App
Temp
°C
Dew
Point
°C
Rel
Hum
%
Delta-T
°C
Wind Press
QNH
hPa
Press
MSL
hPa
Rain since
9am
mm
Dir  Spd
km/h
Gust
km/h
Spd
kts
Gust
kts
18/05:00am 19.3 19.3 18.0 92 0.8 SSW 15 20 8 11 1014.2 1014.2 0.0
18/04:30am 19.5 19.7 18.5 94 0.6 SSW 15 20 8 11 1014.3 1014.3 0.0
18/04:00am 20.0 20.1 19.2 95 0.5 SSW 17 24 9 13 1013.9 1013.9 0.0
18/03:30am 20.3 20.6 18.8 91 0.9 SW 15 24 8 13 1013.9 1013.9 0.0
18/03:00am 21.0 19.7 15.8 72 3.1 SSW 17 24 9 13 1013.1 1013.1 0.0
18/02:30am 21.7 20.4 13.6 60 4.7 SW 13 15 7 8 1012.7 1012.7 0.0
18/02:00am 19.4 18.9 15.9 80 2.1 WNW 13 15 7 8 1012.4 1012.4 0.0
18/01:30am 20.2 19.0 15.0 72 3.1 W 15 19 8 10 1012.4 1012.4 0.0
18/01:00am 23.4 22.2 16.0 63 4.5 WNW 17 22 9 12 1012.1 1012.1 0.0
18/12:30am 23.5 21.9 16.1 63 4.5 WNW 19 26 10 14 1012.0 1012.0 0.0
18/12:00am 24.0 21.9 16.3 62 4.7 NW 22 30 12 16 1011.9 1011.9 0.0
 
Date/Time
EDT
Temp
°C
App
Temp
°C
Dew
Point
°C
Rel
Hum
%
Delta-T
°C
Wind Press
QNH
hPa
Press
MSL
hPa
Rain since
9am
mm
Dir  Spd
km/h
Gust
km/h
Spd
kts
Gust
kts
17/11:30pm 23.1 21.7 16.6 67 4.0 NW 19 24 10 13 1011.8 1011.8 0.0
17/11:00pm 20.5 21.3 17.3 82 2.0 W 9 17 5 9 1011.7 1011.7 0.0
17/10:30pm 22.0 22.7 18.0 78 2.5 NNW 11 15 6 8 1011.5 1011.5 0.0
17/10:00pm 22.5 22.8 17.8 75 2.9 N 13 22 7 12 1011.1 1011.1 0.0
17/09:30pm 22.8 24.1 17.5 72 3.3 NNW 7 13 4 7 1010.7 1010.7 0.0
17/09:00pm 23.2 21.5 18.1 73 3.2 NNE 24 30 13 16 1010.3 1010.3 0.0
17/08:30pm 23.1 22.3 18.4 75 3.0 N 20 28 11 15 1010.0 1010.0 0.0
17/08:00pm 22.7 20.6 18.0 75 2.9 N 26 39 14 21 1009.6 1009.6 0.0
17/07:30pm 22.6 20.6 18.2 76 2.8 N 26 39 14 21 1009.4 1009.4 0.0
17/07:11pm 22.5 19.1 17.8 75 2.9 N 32 46 17 25 1009.4 1009.4 0.0
17/07:00pm 23.4 22.3 17.2 68 3.8 NNE 19 28 10 15 1008.9 1008.9 0.0
17/06:30pm 24.6 22.1 18.1 67 4.1 N 28 39 15 21 1007.2 1007.2 0.0
17/06:00pm 25.5 23.1 18.2 64 4.6 N 28 37 15 20 1006.0 1006.0 0.0
17/05:30pm 23.6 22.8 20.1 81 2.3 N 24 33 13 18 1007.6 1007.6 0.0
17/05:18pm 22.9 21.2 19.7 82 2.1 N 28 46 15 25 1007.8 1007.8 0.0
17/05:00pm 23.9 21.1 19.4 76 2.9 N 33 52 18 28 1005.7 1005.7 0.0
17/04:30pm 24.5 21.1 19.1 72 3.4 N 35 56 19 30 1005.3 1005.3 0.0
17/04:00pm 26.7 23.4 20.1 67 4.3 NNE 37 56 20 30 1005.4 1005.4 0.0
17/03:36pm 26.9 23.2 20.0 66 4.5 N 39 57 21 31 1006.1 1006.1 0.0
17/03:30pm 26.9 23.2 20.0 66 4.5 N 39 56 21 30 1006.2 1006.2 0.0
17/03:00pm 27.4 24.2 20.2 65 4.7 N 37 54 20 29 1006.7 1006.7 0.0
17/02:30pm 27.2 24.2 19.8 64 4.8 N 35 59 19 32 1007.3 1007.3 0.0
17/02:00pm 27.0 24.0 19.9 65 4.6 N 35 54 19 29 1007.9 1007.9 0.0
17/01:37pm 27.3 24.8 20.9 68 4.2 NNE 35 54 19 29 1008.4 1008.4 0.0
17/01:30pm 26.9 23.4 20.3 67 4.3 NNE 39 54 21 29 1008.5 1008.5 0.0
17/01:00pm 27.0 22.9 19.9 65 4.6 N 41 56 22 30 1008.8 1008.8 0.0
17/12:31pm 27.2 24.0 19.5 62 5.0 N 35 54 19 29 1009.3 1009.3 0.0
17/12:30pm 27.6 24.6 19.9 63 5.0 N 35 48 19 26 1009.4 1009.4 0.0
17/12:04pm 27.6 24.2 18.9 59 5.6 N 35 54 19 29 1009.6 1009.6 0.0
17/12:00pm 28.0 25.2 19.5 60 5.5 N 33 50 18 27 1009.7 1009.7 0.0
17/11:32am 28.1 25.4 19.3 58 5.7 N 32 50 17 27 1009.8 1009.8 0.0
17/11:30am 28.0 25.4 20.0 61 5.2 N 33 50 18 27 1009.9 1009.9 0.0
17/11:00am 27.4 25.2 18.7 59 5.6 N 28 46 15 25 1010.6 1010.6 0.0
17/10:51am 27.2 25.4 19.5 62 5.0 NNE 28 46 15 25 1010.7 1010.7 0.0
17/10:30am 27.1 25.1 20.0 65 4.6 NNE 30 43 16 23 1011.0 1011.0 0.0
17/10:00am 25.9 24.3 19.1 66 4.4 NNE 26 35 14 19 1011.3 1011.3 0.0
17/09:30am 25.1 23.5 19.2 70 3.8 NNE 26 37 14 20 1011.8 1011.8 0.0
17/09:00am 24.1 21.9 18.7 72 3.4 NNE 28 41 15 22 1011.7 1011.7 0.2
17/08:30am 22.8 21.7 18.6 77 2.6 NNE 22 39 12 21 1011.6 1011.6 0.2
17/08:00am 22.4 19.3 18.4 78 2.5 N 32 44 17 24 1011.3 1011.3 0.2
17/07:30am 22.0 19.8 18.8 82 2.0 N 28 43 15 23 1011.1 1011.1 0.2
17/07:00am 21.2 19.7 18.6 85 1.6 NNE 24 37 13 20 1010.9 1010.9 0.2
17/06:30am 20.9 19.5 18.7 87 1.4 N 24 41 13 22 1011.1 1011.1 0.2
17/06:00am 20.9 19.5 18.7 87 1.4 NNE 24 35 13 19 1010.3 1010.3 0.2
17/05:30am 21.1 19.8 19.0 88 1.3 N 24 32 13 17 1010.6 1010.6 0.2
17/05:00am 20.9 19.6 19.0 89 1.2 NNE 24 35 13 19 1010.2 1010.2 0.2
17/04:30am 21.1 20.6 19.0 88 1.3 NNE 20 28 11 15 1010.8 1010.8 0.0
17/04:00am 20.7 21.1 19.0 90 1.1 NE 15 20 8 11 1011.9 1011.9 0.0
17/03:30am 20.8 22.3 18.9 89 1.2 NNE 9 13 5 7 1012.7 1012.7 0.0
17/03:00am 21.6 23.7 20.2 92 0.9 W 9 15 5 8 1013.3 1013.3 0.0
17/02:30am 21.8 22.1 20.3 91 1.0 NNW 19 26 10 14 1012.8 1012.8 0.0
17/02:00am 21.7 20.2 20.3 92 0.9 NNE 28 41 15 22 1010.8 1010.8 0.0
17/01:30am 21.7 21.9 20.5 93 0.8 NNE 20 32 11 17 1011.2 1011.2 0.0
17/01:00am 21.7 22.3 20.3 92 0.9 N 17 28 9 15 1011.8 1011.8 0.0
17/12:30am 21.6 21.7 20.4 93 0.8 NNE 20 35 11 19 1011.4 1011.4 0.0
17/12:00am 21.6 21.4 20.6 94 0.6 N 22 32 12 17 1011.2 1011.2 0.0
 
Date/Time
EDT
Temp
°C
App
Temp
°C
Dew
Point
°C
Rel
Hum
%
Delta-T
°C
Wind Press
QNH
hPa
Press
MSL
hPa
Rain since
9am
mm
Dir  Spd
km/h
Gust
km/h
Spd
kts
Gust
kts
16/11:30pm 21.7 21.3 20.9 95 0.5 N 24 37 13 20 1011.2 1011.2 0.0
16/11:00pm 21.7 20.2 20.3 92 0.9 N 28 44 15 24 1011.0 1011.0 0.0
16/10:30pm 21.9 20.5 21.1 95 0.5 N 30 41 16 22 1010.9 1010.9 0.0
16/10:13pm 22.0 20.4 20.8 93 0.8 NNE 30 48 16 26 1011.1 1011.1 0.0
16/10:00pm 21.9 20.9 20.4 91 1.0 N 26 39 14 21 1011.3 1011.3 0.0
16/09:31pm 21.9 20.5 20.4 91 1.0 N 28 46 15 25 1011.2 1011.2 0.0
16/09:30pm 22.0 20.3 20.5 91 1.0 N 30 46 16 25 1011.2 1011.2 0.0
16/09:18pm 22.0 20.3 20.5 91 1.0 N 30 48 16 26 1011.2 1011.2 0.0
16/09:00pm 22.1 20.0 20.6 91 1.0 NNE 32 48 17 26 1011.0 1011.0 0.0
16/08:37pm 22.1 20.5 20.7 92 0.9 NNE 30 48 16 26 1010.8 1010.8 0.0
16/08:30pm 22.0 19.9 20.5 91 1.0 NNE 32 46 17 25 1010.7 1010.7 0.0
16/08:11pm 22.2 20.2 20.7 91 1.0 NNE 32 50 17 27 1010.4 1010.4 0.0
16/08:00pm 22.3 20.7 20.8 91 1.0 NNE 30 44 16 24 1010.6 1010.6 0.0
16/07:30pm 22.3 20.4 20.2 88 1.4 NNE 30 44 16 24 1010.7 1010.7 0.0
16/07:14pm 22.5 20.3 19.5 83 1.9 N 30 48 16 26 1010.6 1010.6 0.0
16/07:00pm 22.6 19.9 19.6 83 1.9 N 33 50 18 27 1010.3 1010.3 0.0
16/06:31pm 23.0 20.8 20.7 87 1.5 NNE 33 54 18 29 1010.1 1010.1 0.0
16/06:30pm 23.0 20.7 20.1 84 1.9 NNE 32 48 17 26 1010.1 1010.1 0.0
16/06:00pm 23.7 21.2 20.2 81 2.3 NNE 33 52 18 28 1010.0 1010.0 0.0
16/05:51pm 23.9 21.5 20.0 79 2.5 NNE 32 52 17 28 1010.0 1010.0 0.0
16/05:30pm 24.5 21.6 20.0 76 2.9 NNE 35 48 19 26 1009.9 1009.9 0.0
16/05:03pm 25.4 22.8 20.0 72 3.5 NNE 33 52 18 28 1009.9 1009.9 0.0
16/05:00pm 25.4 22.5 20.0 72 3.5 NNE 35 52 19 28 1009.9 1009.9 0.0
16/04:30pm 25.4 21.8 20.2 73 3.4 NNE 39 57 21 31 1010.0 1010.0 0.0
16/04:00pm 26.2 23.4 21.0 73 3.4 N 37 61 20 33 1010.0 1010.0 0.0
16/03:33pm 26.7 24.4 20.5 69 4.1 N 33 52 18 28 1010.2 1010.2 0.0
16/03:30pm 26.8 24.3 20.9 70 3.9 N 35 52 19 28 1010.2 1010.2 0.0
16/03:00pm 27.5 25.5 21.1 68 4.2 N 33 43 18 23 1010.7 1010.7 0.0
16/02:30pm 27.7 25.7 20.8 66 4.6 NNE 32 44 17 24 1010.8 1010.8 0.0
16/02:00pm 27.6 26.1 20.2 64 4.8 NNE 28 44 15 24 1011.2 1011.2 0.0
16/01:30pm 28.0 26.0 20.0 61 5.2 N 30 39 16 21 1011.5 1011.5 0.0
16/01:00pm 28.1 26.2 20.1 62 5.2 N 30 43 16 23 1011.8 1011.8 0.0
16/12:30pm 28.5 27.8 21.8 67 4.5 NE 28 39 15 21 1012.2 1012.2 0.0
16/12:00pm 27.8 26.8 21.3 67 4.3 NE 28 35 15 19 1012.5 1012.5 0.0
16/11:30am 27.5 27.2 20.3 65 4.7 NE 22 32 12 17 1013.4 1013.4 0.0
16/11:00am 27.6 28.0 19.9 63 5.0 NNE 17 32 9 17 1014.0 1014.0 0.0
16/10:30am 26.7 28.2 20.5 69 4.1 N 13 20 7 11 1014.1 1014.1 0.0
16/10:00am 25.7 28.2 22.4 82 2.2 NNW 13 19 7 10 1014.4 1014.4 0.0
16/09:30am 24.7 26.6 20.6 78 2.7 NNW 11 20 6 11 1014.6 1014.6 0.0
16/09:00am 24.0 25.6 19.1 74 3.1 NW 9 15 5 8 1014.6 1014.6 0.0
16/08:30am 22.6 25.3 20.3 87 1.5 WNW 6 9 3 5 1014.6 1014.6 0.0
16/08:00am 20.9 23.0 19.4 91 0.9 NW 7 9 4 5 1014.4 1014.4 0.0
16/07:30am 19.1 21.7 18.3 95 0.5 W 2 7 1 4 1014.2 1014.2 0.0
16/07:00am 17.8 - - - - CALM 0 0 0 0 1014.0 1014.0 0.0
16/06:51am 17.1 - - - - CALM 0 4 0 2 1014.0 1014.0 0.0
16/06:30am 16.0 17.5 15.8 99 0.1 NW 2 7 1 4 1013.9 1013.9 0.0
16/06:09am 16.8 17.9 16.5 98 0.2 NW 6 7 3 4 1013.6 1013.6 0.0
16/06:00am 17.7 19.0 17.2 97 0.3 WNW 6 7 3 4 1013.5 1013.5 0.0
16/05:30am 18.7 - - - - N 7 9 4 5 1013.1 1013.1 0.0
16/05:00am 19.2 20.9 18.4 95 0.5 N 7 13 4 7 1013.1 1013.1 0.0
16/04:30am 19.5 20.3 19.0 97 0.3 NNE 13 19 7 10 1012.8 1012.8 0.0
16/04:00am 19.4 20.8 18.6 95 0.5 N 9 13 5 7 1013.0 1013.0 0.0
16/03:30am 19.5 20.7 18.3 93 0.7 N 9 11 5 6 1013.0 1013.0 0.0
16/03:00am 19.7 21.0 19.2 97 0.3 N 11 17 6 9 1013.2 1013.2 0.0
16/02:30am 19.9 20.5 19.4 97 0.3 NNE 15 19 8 10 1013.3 1013.3 0.0
16/02:00am 20.0 21.8 19.5 97 0.3 N 9 15 5 8 1013.6 1013.6 0.0
16/01:30am 20.4 21.1 18.9 91 0.9 N 13 19 7 10 1013.7 1013.7 0.0
16/01:00am 20.7 21.5 19.0 90 1.1 N 13 19 7 10 1013.7 1013.7 0.0
16/12:30am 20.8 21.6 19.1 90 1.1 N 13 17 7 9 1013.8 1013.8 0.0
16/12:00am 20.6 21.8 19.1 91 0.9 N 11 17 6 9 1013.7 1013.7 0.0
 
Date/Time
EDT
Temp
°C
App
Temp
°C
Dew
Point
°C
Rel
Hum
%
Delta-T
°C
Wind Press
QNH
hPa
Press
MSL
hPa
Rain since
9am
mm
Dir  Spd
km/h
Gust
km/h
Spd
kts
Gust
kts
15/11:30pm 20.8 21.2 19.1 90 1.1 N 15 20 8 11 1013.7 1013.7 0.0
15/11:00pm 20.7 21.5 19.0 90 1.1 N 13 20 7 11 1013.7 1013.7 0.0
15/10:30pm 20.7 21.3 18.6 88 1.3 N 13 20 7 11 1013.7 1013.7 0.0
15/10:00pm 20.9 20.9 18.1 84 1.7 N 15 24 8 13 1013.5 1013.5 0.0
15/09:30pm 21.3 20.5 18.1 82 2.0 N 19 28 10 15 1013.4 1013.4 0.0
15/09:00pm 21.3 20.8 17.9 81 2.1 N 17 24 9 13 1013.1 1013.1 0.0
15/08:30pm 21.2 21.0 17.6 80 2.2 N 15 24 8 13 1013.0 1013.0 0.0
15/08:00pm 21.5 20.8 17.3 77 2.6 NNE 17 24 9 13 1012.5 1012.5 0.0
15/07:30pm 21.6 20.5 17.4 77 2.6 N 19 24 10 13 1012.3 1012.3 0.0
15/07:00pm 21.9 19.9 17.5 76 2.7 N 24 35 13 19 1012.0 1012.0 0.0
15/06:30pm 22.3 20.7 18.3 78 2.5 NNE 24 37 13 20 1011.5 1011.5 0.0
15/06:00pm 23.1 20.4 17.6 71 3.4 NNE 28 43 15 23 1011.4 1011.4 0.0
15/05:30pm 23.5 20.6 17.9 71 3.5 NNE 30 43 16 23 1011.1 1011.1 0.0
15/05:00pm 23.9 21.9 20.8 83 2.0 N 32 44 17 24 1010.8 1010.8 0.0
15/04:30pm 24.2 22.6 21.5 85 1.8 NE 32 44 17 24 1011.0 1011.0 0.0
15/04:00pm 25.1 24.4 21.8 82 2.2 NE 28 39 15 21 1011.1 1011.1 0.0
15/03:30pm 24.5 22.6 21.4 83 2.0 NE 33 44 18 24 1011.3 1011.3 0.0
15/03:00pm 25.3 24.2 21.8 81 2.3 NE 30 41 16 22 1011.3 1011.3 0.0
15/02:30pm 25.5 23.8 21.4 78 2.7 NE 32 39 17 21 1011.4 1011.4 0.0
15/02:00pm 26.0 25.9 21.4 76 3.1 NE 24 33 13 18 1011.7 1011.7 0.0
15/01:30pm 25.8 22.7 18.5 64 4.6 NE 32 41 17 22 1012.0 1012.0 0.0
15/01:00pm 25.3 23.3 18.2 64 4.5 NE 26 35 14 19 1012.3 1012.3 0.0
15/12:30pm 26.0 25.8 18.4 63 4.8 ESE 17 32 9 17 1012.6 1012.6 0.0
15/12:00pm 24.0 23.7 18.2 70 3.6 SSE 17 22 9 12 1013.0 1013.0 0.0
15/11:30am 23.1 22.3 18.4 75 3.0 SSE 20 28 11 15 1013.3 1013.3 0.0
15/11:00am 23.5 23.1 19.0 76 2.9 SSE 19 24 10 13 1013.7 1013.7 0.0
15/10:30am 24.1 25.7 17.8 68 3.9 SW 6 13 3 7 1013.9 1013.9 0.0
15/10:00am 22.9 24.7 17.4 71 3.4 N 4 9 2 5 1014.2 1014.2 0.0
15/09:30am 21.9 22.3 17.3 75 2.8 WNW 11 17 6 9 1014.6 1014.6 0.0
15/09:00am 21.0 20.8 17.6 81 2.1 NNW 15 19 8 10 1014.6 1014.6 0.0
15/08:30am 20.0 21.5 18.0 88 1.2 N 7 15 4 8 1014.5 1014.5 0.0
15/08:00am 18.0 20.0 16.9 93 0.7 WSW 2 7 1 4 1014.7 1014.7 0.0
15/07:30am 17.5 18.0 16.5 94 0.6 WSW 9 13 5 7 1014.9 1014.9 0.0
15/07:00am 16.9 18.6 16.1 95 0.5 NW 2 7 1 4 1014.5 1014.5 0.0
15/06:30am 16.8 17.5 16.0 95 0.5 S 7 11 4 6 1014.3 1014.3 0.0
15/06:00am 16.4 17.5 15.6 95 0.5 NE 4 11 2 6 1013.9 1013.9 0.0
15/05:30am 16.5 17.5 15.4 93 0.6 WSW 4 7 2 4 1014.2 1014.2 0.0

Other formats

Comma delimited format used in spreadsheet applications
http://www.bom.gov.au/fwo/IDN60801/IDN60801.94596.axf

JavaScript Object Notation format (JSON) in row-major order
http://www.bom.gov.au/fwo/IDN60801/IDN60801.94596.json

Data quality

Most of these data are generated automatically and are frequently updated. Quality checks on data are not normally performed. It is possible for incorrect values to appear. Refer to information at About Latest Weather Observations and please check the disclaimer before using these data.